sensor_id;sensor_type;location;lat;lon;timestamp;P1;durP1;ratioP1;P2;durP2;ratioP2
33072;SDS011;19432;48.946;8.846;2022-07-29T00:00:39;3.08;;;2.78;;
33072;SDS011;19432;48.946;8.846;2022-07-29T00:03:05;3.30;;;3.05;;
33072;SDS011;19432;48.946;8.846;2022-07-29T00:05:30;3.08;;;2.78;;
33072;SDS011;19432;48.946;8.846;2022-07-29T00:07:56;3.95;;;3.28;;
33072;SDS011;19432;48.946;8.846;2022-07-29T00:10:22;3.28;;;2.97;;
33072;SDS011;19432;48.946;8.846;2022-07-29T00:12:48;3.65;;;3.17;;
33072;SDS011;19432;48.946;8.846;2022-07-29T00:15:13;3.42;;;3.00;;
33072;SDS011;19432;48.946;8.846;2022-07-29T00:17:39;3.25;;;2.95;;
33072;SDS011;19432;48.946;8.846;2022-07-29T00:20:05;3.85;;;3.05;;
33072;SDS011;19432;48.946;8.846;2022-07-29T00:22:31;3.45;;;3.15;;
33072;SDS011;19432;48.946;8.846;2022-07-29T00:24:57;4.75;;;3.03;;
33072;SDS011;19432;48.946;8.846;2022-07-29T00:27:22;3.65;;;3.35;;
33072;SDS011;19432;48.946;8.846;2022-07-29T00:29:48;3.38;;;3.08;;
33072;SDS011;19432;48.946;8.846;2022-07-29T00:32:13;3.47;;;3.03;;
33072;SDS011;19432;48.946;8.846;2022-07-29T00:34:39;3.35;;;3.05;;
33072;SDS011;19432;48.946;8.846;2022-07-29T00:37:23;4.00;;;3.35;;
33072;SDS011;19432;48.946;8.846;2022-07-29T00:39:49;3.92;;;3.17;;
33072;SDS011;19432;48.946;8.846;2022-07-29T00:42:15;3.22;;;2.90;;
33072;SDS011;19432;48.946;8.846;2022-07-29T00:44:41;3.22;;;2.88;;
33072;SDS011;19432;48.946;8.846;2022-07-29T00:47:08;3.30;;;3.00;;
33072;SDS011;19432;48.946;8.846;2022-07-29T00:49:35;4.68;;;3.20;;
33072;SDS011;19432;48.946;8.846;2022-07-29T00:52:02;3.03;;;2.72;;
33072;SDS011;19432;48.946;8.846;2022-07-29T00:54:28;3.65;;;2.60;;
33072;SDS011;19432;48.946;8.846;2022-07-29T00:56:56;3.10;;;2.80;;
33072;SDS011;19432;48.946;8.846;2022-07-29T00:59:23;4.20;;;3.80;;
33072;SDS011;19432;48.946;8.846;2022-07-29T01:01:48;2.78;;;2.58;;
33072;SDS011;19432;48.946;8.846;2022-07-29T01:04:14;2.78;;;2.50;;
33072;SDS011;19432;48.946;8.846;2022-07-29T01:06:40;3.22;;;2.92;;
33072;SDS011;19432;48.946;8.846;2022-07-29T01:09:07;2.80;;;2.58;;
33072;SDS011;19432;48.946;8.846;2022-07-29T01:11:34;2.90;;;2.67;;
33072;SDS011;19432;48.946;8.846;2022-07-29T01:14:01;3.75;;;2.83;;
33072;SDS011;19432;48.946;8.846;2022-07-29T01:16:35;3.72;;;2.83;;
33072;SDS011;19432;48.946;8.846;2022-07-29T01:19:39;3.05;;;2.58;;
33072;SDS011;19432;48.946;8.846;2022-07-29T01:22:18;3.38;;;3.08;;
33072;SDS011;19432;48.946;8.846;2022-07-29T01:27:52;2.88;;;2.67;;
33072;SDS011;19432;48.946;8.846;2022-07-29T01:30:32;3.47;;;3.15;;
33072;SDS011;19432;48.946;8.846;2022-07-29T01:33:02;3.47;;;2.60;;
33072;SDS011;19432;48.946;8.846;2022-07-29T01:35:32;3.03;;;2.72;;
33072;SDS011;19432;48.946;8.846;2022-07-29T01:38:10;4.20;;;2.85;;
33072;SDS011;19432;48.946;8.846;2022-07-29T01:40:45;3.00;;;2.72;;
33072;SDS011;19432;48.946;8.846;2022-07-29T01:43:17;2.78;;;2.58;;
33072;SDS011;19432;48.946;8.846;2022-07-29T01:45:53;3.10;;;2.58;;
33072;SDS011;19432;48.946;8.846;2022-07-29T01:48:47;3.30;;;2.90;;
33072;SDS011;19432;48.946;8.846;2022-07-29T01:51:18;3.45;;;2.75;;
33072;SDS011;19432;48.946;8.846;2022-07-29T01:53:47;3.13;;;2.83;;
33072;SDS011;19432;48.946;8.846;2022-07-29T01:56:20;3.03;;;2.70;;
33072;SDS011;19432;48.946;8.846;2022-07-29T01:58:49;3.47;;;2.97;;
33072;SDS011;19432;48.946;8.846;2022-07-29T02:01:17;3.97;;;3.20;;
33072;SDS011;19432;48.946;8.846;2022-07-29T02:03:44;3.00;;;2.80;;
33072;SDS011;19432;48.946;8.846;2022-07-29T02:06:11;2.78;;;2.58;;
33072;SDS011;19432;48.946;8.846;2022-07-29T02:08:38;3.30;;;3.00;;
33072;SDS011;19432;48.946;8.846;2022-07-29T02:11:05;3.85;;;3.08;;
33072;SDS011;19432;48.946;8.846;2022-07-29T02:13:33;3.58;;;3.17;;
33072;SDS011;19432;48.946;8.846;2022-07-29T02:16:01;3.85;;;3.13;;
33072;SDS011;19432;48.946;8.846;2022-07-29T02:18:30;3.20;;;2.83;;
33072;SDS011;19432;48.946;8.846;2022-07-29T02:20:56;3.28;;;2.97;;
33072;SDS011;19432;48.946;8.846;2022-07-29T02:23:24;3.15;;;2.85;;
33072;SDS011;19432;48.946;8.846;2022-07-29T02:25:57;3.60;;;3.05;;
33072;SDS011;19432;48.946;8.846;2022-07-29T02:28:25;3.25;;;2.83;;
33072;SDS011;19432;48.946;8.846;2022-07-29T02:30:53;2.75;;;2.55;;
33072;SDS011;19432;48.946;8.846;2022-07-29T02:33:22;3.17;;;2.90;;
33072;SDS011;19432;48.946;8.846;2022-07-29T02:35:50;3.40;;;3.10;;
33072;SDS011;19432;48.946;8.846;2022-07-29T02:38:17;2.80;;;2.60;;
33072;SDS011;19432;48.946;8.846;2022-07-29T02:41:04;3.28;;;2.90;;
33072;SDS011;19432;48.946;8.846;2022-07-29T02:43:34;3.50;;;3.20;;
33072;SDS011;19432;48.946;8.846;2022-07-29T02:46:00;2.78;;;2.58;;
33072;SDS011;19432;48.946;8.846;2022-07-29T02:48:41;3.55;;;3.10;;
33072;SDS011;19432;48.946;8.846;2022-07-29T02:51:24;3.30;;;3.00;;
33072;SDS011;19432;48.946;8.846;2022-07-29T02:53:54;3.40;;;3.10;;
33072;SDS011;19432;48.946;8.846;2022-07-29T02:56:27;3.33;;;2.85;;
33072;SDS011;19432;48.946;8.846;2022-07-29T02:59:00;2.97;;;2.72;;
33072;SDS011;19432;48.946;8.846;2022-07-29T03:01:30;3.33;;;2.92;;
33072;SDS011;19432;48.946;8.846;2022-07-29T03:03:57;3.60;;;3.30;;
33072;SDS011;19432;48.946;8.846;2022-07-29T03:06:28;3.83;;;3.53;;
33072;SDS011;19432;48.946;8.846;2022-07-29T03:08:55;3.92;;;3.25;;
33072;SDS011;19432;48.946;8.846;2022-07-29T03:11:23;3.38;;;3.08;;
33072;SDS011;19432;48.946;8.846;2022-07-29T03:13:50;3.50;;;3.13;;
33072;SDS011;19432;48.946;8.846;2022-07-29T03:16:17;3.47;;;3.13;;
33072;SDS011;19432;48.946;8.846;2022-07-29T03:18:44;3.40;;;3.10;;
33072;SDS011;19432;48.946;8.846;2022-07-29T03:21:10;3.60;;;3.30;;
33072;SDS011;19432;48.946;8.846;2022-07-29T03:23:36;3.42;;;2.92;;
33072;SDS011;19432;48.946;8.846;2022-07-29T03:26:01;3.97;;;3.38;;
33072;SDS011;19432;48.946;8.846;2022-07-29T03:28:27;3.80;;;3.33;;
33072;SDS011;19432;48.946;8.846;2022-07-29T03:30:53;3.65;;;3.35;;
33072;SDS011;19432;48.946;8.846;2022-07-29T03:33:19;3.60;;;3.20;;
33072;SDS011;19432;48.946;8.846;2022-07-29T03:35:44;3.85;;;3.55;;
33072;SDS011;19432;48.946;8.846;2022-07-29T03:38:10;4.40;;;4.00;;
33072;SDS011;19432;48.946;8.846;2022-07-29T03:40:49;4.78;;;4.00;;
33072;SDS011;19432;48.946;8.846;2022-07-29T03:43:19;4.53;;;3.85;;
33072;SDS011;19432;48.946;8.846;2022-07-29T03:45:47;5.47;;;3.72;;
33072;SDS011;19432;48.946;8.846;2022-07-29T03:48:16;4.45;;;4.05;;
33072;SDS011;19432;48.946;8.846;2022-07-29T03:50:44;5.65;;;3.90;;
33072;SDS011;19432;48.946;8.846;2022-07-29T03:53:11;4.18;;;3.78;;
33072;SDS011;19432;48.946;8.846;2022-07-29T03:55:41;4.38;;;3.78;;
33072;SDS011;19432;48.946;8.846;2022-07-29T03:58:10;4.65;;;3.63;;
33072;SDS011;19432;48.946;8.846;2022-07-29T04:00:38;3.72;;;3.30;;
33072;SDS011;19432;48.946;8.846;2022-07-29T04:03:04;4.40;;;3.95;;
33072;SDS011;19432;48.946;8.846;2022-07-29T04:05:30;4.13;;;3.50;;
33072;SDS011;19432;48.946;8.846;2022-07-29T04:07:56;5.10;;;4.00;;
33072;SDS011;19432;48.946;8.846;2022-07-29T04:10:21;4.28;;;3.88;;
33072;SDS011;19432;48.946;8.846;2022-07-29T04:12:50;5.18;;;4.18;;
33072;SDS011;19432;48.946;8.846;2022-07-29T04:15:16;5.88;;;4.03;;
33072;SDS011;19432;48.946;8.846;2022-07-29T04:17:41;5.15;;;4.25;;
33072;SDS011;19432;48.946;8.846;2022-07-29T04:20:08;4.35;;;3.80;;
33072;SDS011;19432;48.946;8.846;2022-07-29T04:22:34;4.07;;;3.67;;
33072;SDS011;19432;48.946;8.846;2022-07-29T04:25:00;4.97;;;4.10;;
33072;SDS011;19432;48.946;8.846;2022-07-29T04:27:25;4.82;;;4.28;;
33072;SDS011;19432;48.946;8.846;2022-07-29T04:29:51;5.38;;;4.07;;
33072;SDS011;19432;48.946;8.846;2022-07-29T04:32:16;4.18;;;3.80;;
33072;SDS011;19432;48.946;8.846;2022-07-29T04:34:42;5.22;;;4.07;;
33072;SDS011;19432;48.946;8.846;2022-07-29T04:37:07;4.93;;;3.80;;
33072;SDS011;19432;48.946;8.846;2022-07-29T04:39:33;4.97;;;4.22;;
33072;SDS011;19432;48.946;8.846;2022-07-29T04:41:59;4.40;;;3.95;;
33072;SDS011;19432;48.946;8.846;2022-07-29T04:44:24;5.32;;;4.43;;
33072;SDS011;19432;48.946;8.846;2022-07-29T04:46:50;4.80;;;4.32;;
33072;SDS011;19432;48.946;8.846;2022-07-29T04:49:15;4.43;;;3.90;;
33072;SDS011;19432;48.946;8.846;2022-07-29T04:51:41;4.40;;;4.00;;
33072;SDS011;19432;48.946;8.846;2022-07-29T04:54:07;4.13;;;3.72;;
33072;SDS011;19432;48.946;8.846;2022-07-29T04:56:32;4.22;;;3.83;;
33072;SDS011;19432;48.946;8.846;2022-07-29T04:58:58;4.72;;;4.28;;
33072;SDS011;19432;48.946;8.846;2022-07-29T05:01:24;4.18;;;3.78;;
33072;SDS011;19432;48.946;8.846;2022-07-29T05:03:49;4.80;;;3.72;;
33072;SDS011;19432;48.946;8.846;2022-07-29T05:06:15;4.53;;;4.10;;
33072;SDS011;19432;48.946;8.846;2022-07-29T05:08:40;4.57;;;3.95;;
33072;SDS011;19432;48.946;8.846;2022-07-29T05:11:06;4.15;;;3.75;;
33072;SDS011;19432;48.946;8.846;2022-07-29T05:13:32;5.63;;;3.90;;
33072;SDS011;19432;48.946;8.846;2022-07-29T05:15:58;4.72;;;4.03;;
33072;SDS011;19432;48.946;8.846;2022-07-29T05:18:24;5.32;;;4.03;;
33072;SDS011;19432;48.946;8.846;2022-07-29T05:20:50;4.15;;;3.75;;
33072;SDS011;19432;48.946;8.846;2022-07-29T05:23:16;5.20;;;3.75;;
33072;SDS011;19432;48.946;8.846;2022-07-29T05:25:41;4.43;;;4.03;;
33072;SDS011;19432;48.946;8.846;2022-07-29T05:28:07;5.75;;;4.25;;
33072;SDS011;19432;48.946;8.846;2022-07-29T05:30:33;4.72;;;3.88;;
33072;SDS011;19432;48.946;8.846;2022-07-29T05:32:58;4.05;;;3.50;;
33072;SDS011;19432;48.946;8.846;2022-07-29T05:35:24;4.65;;;4.03;;
33072;SDS011;19432;48.946;8.846;2022-07-29T05:37:49;4.10;;;3.72;;
33072;SDS011;19432;48.946;8.846;2022-07-29T05:40:15;4.40;;;3.97;;
33072;SDS011;19432;48.946;8.846;2022-07-29T05:42:41;4.35;;;3.95;;
33072;SDS011;19432;48.946;8.846;2022-07-29T05:45:06;3.90;;;3.60;;
33072;SDS011;19432;48.946;8.846;2022-07-29T05:47:33;4.03;;;3.72;;
33072;SDS011;19432;48.946;8.846;2022-07-29T05:49:59;4.03;;;3.58;;
33072;SDS011;19432;48.946;8.846;2022-07-29T05:52:24;3.67;;;3.38;;
33072;SDS011;19432;48.946;8.846;2022-07-29T05:54:50;3.80;;;3.50;;
33072;SDS011;19432;48.946;8.846;2022-07-29T05:57:16;4.68;;;4.05;;
33072;SDS011;19432;48.946;8.846;2022-07-29T05:59:42;4.05;;;3.58;;
33072;SDS011;19432;48.946;8.846;2022-07-29T06:02:08;3.67;;;3.38;;
33072;SDS011;19432;48.946;8.846;2022-07-29T06:04:34;4.25;;;3.85;;
33072;SDS011;19432;48.946;8.846;2022-07-29T06:06:59;3.60;;;3.22;;
33072;SDS011;19432;48.946;8.846;2022-07-29T06:09:25;3.90;;;3.28;;
33072;SDS011;19432;48.946;8.846;2022-07-29T06:11:51;3.67;;;3.38;;
33072;SDS011;19432;48.946;8.846;2022-07-29T06:14:17;3.90;;;3.50;;
33072;SDS011;19432;48.946;8.846;2022-07-29T06:16:43;3.08;;;2.78;;
33072;SDS011;19432;48.946;8.846;2022-07-29T06:19:08;3.88;;;3.53;;
33072;SDS011;19432;48.946;8.846;2022-07-29T06:21:34;4.65;;;2.97;;
33072;SDS011;19432;48.946;8.846;2022-07-29T06:23:59;3.25;;;2.95;;
33072;SDS011;19432;48.946;8.846;2022-07-29T06:26:25;3.75;;;3.28;;
33072;SDS011;19432;48.946;8.846;2022-07-29T06:28:51;3.03;;;2.70;;
33072;SDS011;19432;48.946;8.846;2022-07-29T06:31:16;3.20;;;2.90;;
33072;SDS011;19432;48.946;8.846;2022-07-29T06:33:42;3.67;;;3.35;;
33072;SDS011;19432;48.946;8.846;2022-07-29T06:36:07;4.13;;;3.30;;
33072;SDS011;19432;48.946;8.846;2022-07-29T06:38:33;3.42;;;3.13;;
33072;SDS011;19432;48.946;8.846;2022-07-29T06:40:59;3.15;;;2.88;;
33072;SDS011;19432;48.946;8.846;2022-07-29T06:43:27;3.00;;;2.70;;
33072;SDS011;19432;48.946;8.846;2022-07-29T06:46:06;3.17;;;2.88;;
33072;SDS011;19432;48.946;8.846;2022-07-29T06:48:34;3.30;;;2.92;;
33072;SDS011;19432;48.946;8.846;2022-07-29T06:51:01;3.00;;;2.80;;
33072;SDS011;19432;48.946;8.846;2022-07-29T06:53:28;2.72;;;2.53;;
33072;SDS011;19432;48.946;8.846;2022-07-29T06:55:54;3.60;;;2.78;;
33072;SDS011;19432;48.946;8.846;2022-07-29T06:58:20;3.28;;;2.97;;
33072;SDS011;19432;48.946;8.846;2022-07-29T07:00:46;3.17;;;2.88;;
33072;SDS011;19432;48.946;8.846;2022-07-29T07:03:12;2.70;;;2.50;;
33072;SDS011;19432;48.946;8.846;2022-07-29T07:05:39;2.97;;;2.67;;
33072;SDS011;19432;48.946;8.846;2022-07-29T07:08:05;2.90;;;2.70;;
33072;SDS011;19432;48.946;8.846;2022-07-29T07:10:31;3.17;;;2.88;;
33072;SDS011;19432;48.946;8.846;2022-07-29T07:12:57;3.00;;;2.63;;
33072;SDS011;19432;48.946;8.846;2022-07-29T07:15:24;7.30;;;2.85;;
33072;SDS011;19432;48.946;8.846;2022-07-29T07:17:49;3.08;;;2.85;;
33072;SDS011;19432;48.946;8.846;2022-07-29T07:20:16;2.88;;;2.67;;
33072;SDS011;19432;48.946;8.846;2022-07-29T07:22:42;3.28;;;2.85;;
33072;SDS011;19432;48.946;8.846;2022-07-29T07:25:08;3.08;;;2.67;;
33072;SDS011;19432;48.946;8.846;2022-07-29T07:27:35;3.35;;;2.63;;
33072;SDS011;19432;48.946;8.846;2022-07-29T07:30:02;3.58;;;3.03;;
33072;SDS011;19432;48.946;8.846;2022-07-29T07:32:34;3.70;;;3.33;;
33072;SDS011;19432;48.946;8.846;2022-07-29T07:35:00;2.92;;;2.60;;
33072;SDS011;19432;48.946;8.846;2022-07-29T07:37:26;3.35;;;2.80;;
33072;SDS011;19432;48.946;8.846;2022-07-29T07:39:52;3.15;;;2.70;;
33072;SDS011;19432;48.946;8.846;2022-07-29T07:42:18;3.22;;;2.85;;
33072;SDS011;19432;48.946;8.846;2022-07-29T07:44:44;3.20;;;2.90;;
33072;SDS011;19432;48.946;8.846;2022-07-29T07:47:13;3.03;;;2.72;;
33072;SDS011;19432;48.946;8.846;2022-07-29T07:49:39;2.88;;;2.58;;
33072;SDS011;19432;48.946;8.846;2022-07-29T07:52:05;4.10;;;3.78;;
33072;SDS011;19432;48.946;8.846;2022-07-29T07:54:30;4.40;;;4.00;;
33072;SDS011;19432;48.946;8.846;2022-07-29T07:56:57;6.50;;;5.72;;
33072;SDS011;19432;48.946;8.846;2022-07-29T07:59:22;3.00;;;2.70;;
33072;SDS011;19432;48.946;8.846;2022-07-29T08:01:48;3.67;;;3.38;;
33072;SDS011;19432;48.946;8.846;2022-07-29T08:04:15;6.95;;;5.38;;
33072;SDS011;19432;48.946;8.846;2022-07-29T08:06:40;5.20;;;4.25;;
33072;SDS011;19432;48.946;8.846;2022-07-29T08:09:06;4.30;;;3.75;;
33072;SDS011;19432;48.946;8.846;2022-07-29T08:11:31;3.10;;;2.90;;
33072;SDS011;19432;48.946;8.846;2022-07-29T08:13:57;4.50;;;4.10;;
33072;SDS011;19432;48.946;8.846;2022-07-29T08:16:23;4.10;;;3.70;;
33072;SDS011;19432;48.946;8.846;2022-07-29T08:18:50;4.43;;;3.78;;
33072;SDS011;19432;48.946;8.846;2022-07-29T08:21:16;3.85;;;3.40;;
33072;SDS011;19432;48.946;8.846;2022-07-29T08:23:43;2.90;;;2.70;;
33072;SDS011;19432;48.946;8.846;2022-07-29T08:26:18;2.90;;;2.70;;
33072;SDS011;19432;48.946;8.846;2022-07-29T08:28:45;3.00;;;2.80;;
33072;SDS011;19432;48.946;8.846;2022-07-29T08:31:14;3.70;;;3.38;;
33072;SDS011;19432;48.946;8.846;2022-07-29T08:33:39;3.40;;;3.10;;
33072;SDS011;19432;48.946;8.846;2022-07-29T08:36:06;4.50;;;3.80;;
33072;SDS011;19432;48.946;8.846;2022-07-29T08:38:32;5.43;;;4.93;;
33072;SDS011;19432;48.946;8.846;2022-07-29T08:40:58;3.40;;;3.10;;
33072;SDS011;19432;48.946;8.846;2022-07-29T08:43:25;3.30;;;3.00;;
33072;SDS011;19432;48.946;8.846;2022-07-29T08:45:52;3.17;;;2.88;;
33072;SDS011;19432;48.946;8.846;2022-07-29T08:48:19;2.88;;;2.47;;
33072;SDS011;19432;48.946;8.846;2022-07-29T08:50:49;4.65;;;3.20;;
33072;SDS011;19432;48.946;8.846;2022-07-29T08:53:19;3.30;;;3.00;;
33072;SDS011;19432;48.946;8.846;2022-07-29T08:55:46;4.28;;;3.90;;
33072;SDS011;19432;48.946;8.846;2022-07-29T08:58:14;3.47;;;3.17;;
33072;SDS011;19432;48.946;8.846;2022-07-29T09:00:41;2.95;;;2.75;;
33072;SDS011;19432;48.946;8.846;2022-07-29T09:03:15;3.60;;;3.30;;
33072;SDS011;19432;48.946;8.846;2022-07-29T09:05:47;3.80;;;3.47;;
33072;SDS011;19432;48.946;8.846;2022-07-29T09:08:13;3.30;;;3.00;;
33072;SDS011;19432;48.946;8.846;2022-07-29T09:10:40;2.90;;;2.70;;
33072;SDS011;19432;48.946;8.846;2022-07-29T09:13:05;2.72;;;2.53;;
33072;SDS011;19432;48.946;8.846;2022-07-29T09:15:31;3.53;;;2.85;;
33072;SDS011;19432;48.946;8.846;2022-07-29T09:17:57;2.40;;;2.20;;
33072;SDS011;19432;48.946;8.846;2022-07-29T09:20:24;2.65;;;2.45;;
33072;SDS011;19432;48.946;8.846;2022-07-29T09:22:51;3.08;;;2.78;;
33072;SDS011;19432;48.946;8.846;2022-07-29T09:25:37;2.80;;;2.50;;
33072;SDS011;19432;48.946;8.846;2022-07-29T09:28:14;3.15;;;2.45;;
33072;SDS011;19432;48.946;8.846;2022-07-29T09:30:57;3.05;;;2.70;;
33072;SDS011;19432;48.946;8.846;2022-07-29T09:33:24;2.38;;;2.13;;
33072;SDS011;19432;48.946;8.846;2022-07-29T09:36:02;2.63;;;2.42;;
33072;SDS011;19432;48.946;8.846;2022-07-29T09:38:29;2.90;;;2.70;;
33072;SDS011;19432;48.946;8.846;2022-07-29T09:40:56;3.20;;;2.90;;
33072;SDS011;19432;48.946;8.846;2022-07-29T09:43:23;2.80;;;2.60;;
33072;SDS011;19432;48.946;8.846;2022-07-29T09:45:48;2.85;;;2.65;;
33072;SDS011;19432;48.946;8.846;2022-07-29T09:48:15;2.50;;;2.30;;
33072;SDS011;19432;48.946;8.846;2022-07-29T09:50:42;2.30;;;2.10;;
33072;SDS011;19432;48.946;8.846;2022-07-29T09:53:09;2.83;;;2.55;;
33072;SDS011;19432;48.946;8.846;2022-07-29T09:56:09;2.63;;;2.20;;
33072;SDS011;19432;48.946;8.846;2022-07-29T09:58:31;2.40;;;2.20;;
33072;SDS011;19432;48.946;8.846;2022-07-29T10:00:59;3.58;;;2.50;;
33072;SDS011;19432;48.946;8.846;2022-07-29T10:03:25;3.42;;;2.42;;
33072;SDS011;19432;48.946;8.846;2022-07-29T10:08:49;2.60;;;2.40;;
33072;SDS011;19432;48.946;8.846;2022-07-29T10:11:18;2.58;;;2.38;;
33072;SDS011;19432;48.946;8.846;2022-07-29T10:13:45;2.45;;;2.25;;
33072;SDS011;19432;48.946;8.846;2022-07-29T10:16:13;2.85;;;2.55;;
33072;SDS011;19432;48.946;8.846;2022-07-29T10:18:40;4.03;;;3.03;;
33072;SDS011;19432;48.946;8.846;2022-07-29T10:21:07;2.70;;;2.50;;
33072;SDS011;19432;48.946;8.846;2022-07-29T10:23:33;2.95;;;2.45;;
33072;SDS011;19432;48.946;8.846;2022-07-29T10:26:00;2.90;;;2.70;;
33072;SDS011;19432;48.946;8.846;2022-07-29T10:28:25;2.28;;;2.17;;
33072;SDS011;19432;48.946;8.846;2022-07-29T10:30:51;2.17;;;1.98;;
33072;SDS011;19432;48.946;8.846;2022-07-29T10:33:30;2.92;;;2.10;;
33072;SDS011;19432;48.946;8.846;2022-07-29T10:36:19;2.65;;;2.45;;
33072;SDS011;19432;48.946;8.846;2022-07-29T10:41:39;2.30;;;2.20;;
33072;SDS011;19432;48.946;8.846;2022-07-29T10:44:26;3.20;;;2.47;;
33072;SDS011;19432;48.946;8.846;2022-07-29T10:46:52;2.30;;;2.10;;
33072;SDS011;19432;48.946;8.846;2022-07-29T10:49:19;2.55;;;2.05;;
33072;SDS011;19432;48.946;8.846;2022-07-29T10:59:42;2.78;;;2.28;;
33072;SDS011;19432;48.946;8.846;2022-07-29T11:07:25;2.05;;;1.85;;
33072;SDS011;19432;48.946;8.846;2022-07-29T11:15:07;2.72;;;2.40;;
33072;SDS011;19432;48.946;8.846;2022-07-29T11:26:30;2.85;;;2.60;;
33072;SDS011;19432;48.946;8.846;2022-07-29T11:31:16;2.55;;;2.35;;
33072;SDS011;19432;48.946;8.846;2022-07-29T11:34:19;2.33;;;2.13;;
33072;SDS011;19432;48.946;8.846;2022-07-29T11:39:33;2.78;;;2.20;;
33072;SDS011;19432;48.946;8.846;2022-07-29T11:44:53;2.72;;;2.53;;
33072;SDS011;19432;48.946;8.846;2022-07-29T11:47:22;2.47;;;2.28;;
33072;SDS011;19432;48.946;8.846;2022-07-29T11:49:48;2.50;;;2.30;;
33072;SDS011;19432;48.946;8.846;2022-07-29T11:52:16;2.50;;;2.30;;
33072;SDS011;19432;48.946;8.846;2022-07-29T11:54:42;2.47;;;2.28;;
33072;SDS011;19432;48.946;8.846;2022-07-29T11:57:08;2.70;;;2.50;;
33072;SDS011;19432;48.946;8.846;2022-07-29T11:59:41;3.35;;;2.70;;
33072;SDS011;19432;48.946;8.846;2022-07-29T12:02:08;3.03;;;2.72;;
33072;SDS011;19432;48.946;8.846;2022-07-29T12:04:47;2.50;;;2.30;;
33072;SDS011;19432;48.946;8.846;2022-07-29T12:07:13;2.95;;;2.70;;
33072;SDS011;19432;48.946;8.846;2022-07-29T12:09:39;2.33;;;2.20;;
33072;SDS011;19432;48.946;8.846;2022-07-29T12:12:05;2.75;;;2.55;;
33072;SDS011;19432;48.946;8.846;2022-07-29T12:14:31;2.30;;;2.10;;
33072;SDS011;19432;48.946;8.846;2022-07-29T12:16:58;3.75;;;2.28;;
33072;SDS011;19432;48.946;8.846;2022-07-29T12:19:25;2.33;;;2.13;;
33072;SDS011;19432;48.946;8.846;2022-07-29T12:21:53;2.40;;;2.20;;
33072;SDS011;19432;48.946;8.846;2022-07-29T12:24:19;2.80;;;2.42;;
33072;SDS011;19432;48.946;8.846;2022-07-29T12:26:52;2.83;;;2.58;;
33072;SDS011;19432;48.946;8.846;2022-07-29T12:29:18;4.15;;;2.25;;
33072;SDS011;19432;48.946;8.846;2022-07-29T12:31:44;2.88;;;2.47;;
33072;SDS011;19432;48.946;8.846;2022-07-29T12:34:11;2.65;;;2.45;;
33072;SDS011;19432;48.946;8.846;2022-07-29T12:36:40;2.50;;;2.30;;
33072;SDS011;19432;48.946;8.846;2022-07-29T12:39:08;3.58;;;2.40;;
33072;SDS011;19432;48.946;8.846;2022-07-29T12:41:34;2.30;;;2.10;;
33072;SDS011;19432;48.946;8.846;2022-07-29T12:44:00;2.72;;;2.20;;
33072;SDS011;19432;48.946;8.846;2022-07-29T12:46:26;1.90;;;1.80;;
33072;SDS011;19432;48.946;8.846;2022-07-29T12:48:53;1.92;;;1.77;;
33072;SDS011;19432;48.946;8.846;2022-07-29T12:51:38;2.10;;;2.00;;
33072;SDS011;19432;48.946;8.846;2022-07-29T12:56:35;2.28;;;1.77;;
33072;SDS011;19432;48.946;8.846;2022-07-29T12:59:10;2.67;;;2.00;;
33072;SDS011;19432;48.946;8.846;2022-07-29T13:01:49;1.77;;;1.67;;
33072;SDS011;19432;48.946;8.846;2022-07-29T13:04:29;1.60;;;1.50;;
33072;SDS011;19432;48.946;8.846;2022-07-29T13:06:59;1.70;;;1.60;;
33072;SDS011;19432;48.946;8.846;2022-07-29T13:09:42;3.45;;;2.00;;
33072;SDS011;19432;48.946;8.846;2022-07-29T13:12:11;1.95;;;1.85;;
33072;SDS011;19432;48.946;8.846;2022-07-29T13:14:39;2.00;;;1.80;;
33072;SDS011;19432;48.946;8.846;2022-07-29T13:17:11;2.10;;;1.90;;
33072;SDS011;19432;48.946;8.846;2022-07-29T13:22:07;2.30;;;2.10;;
33072;SDS011;19432;48.946;8.846;2022-07-29T13:24:55;1.67;;;1.52;;
33072;SDS011;19432;48.946;8.846;2022-07-29T13:27:25;1.67;;;1.58;;
33072;SDS011;19432;48.946;8.846;2022-07-29T13:29:55;1.85;;;1.67;;
33072;SDS011;19432;48.946;8.846;2022-07-29T13:32:23;3.08;;;1.60;;
33072;SDS011;19432;48.946;8.846;2022-07-29T13:34:50;1.80;;;1.70;;
33072;SDS011;19432;48.946;8.846;2022-07-29T13:37:17;1.65;;;1.55;;
33072;SDS011;19432;48.946;8.846;2022-07-29T13:39:43;2.08;;;1.77;;
33072;SDS011;19432;48.946;8.846;2022-07-29T13:42:09;2.05;;;1.85;;
33072;SDS011;19432;48.946;8.846;2022-07-29T13:44:35;2.05;;;1.85;;
33072;SDS011;19432;48.946;8.846;2022-07-29T13:47:00;2.22;;;1.67;;
33072;SDS011;19432;48.946;8.846;2022-07-29T13:49:27;1.77;;;1.67;;
33072;SDS011;19432;48.946;8.846;2022-07-29T13:51:53;1.85;;;1.75;;
33072;SDS011;19432;48.946;8.846;2022-07-29T13:54:19;1.80;;;1.65;;
33072;SDS011;19432;48.946;8.846;2022-07-29T13:56:45;1.52;;;1.42;;
33072;SDS011;19432;48.946;8.846;2022-07-29T13:59:11;1.42;;;1.30;;
33072;SDS011;19432;48.946;8.846;2022-07-29T14:01:37;1.92;;;1.83;;
33072;SDS011;19432;48.946;8.846;2022-07-29T14:04:07;2.10;;;1.70;;
33072;SDS011;19432;48.946;8.846;2022-07-29T14:06:33;1.70;;;1.60;;
33072;SDS011;19432;48.946;8.846;2022-07-29T14:08:58;1.48;;;1.38;;
33072;SDS011;19432;48.946;8.846;2022-07-29T14:11:24;1.80;;;1.70;;
33072;SDS011;19432;48.946;8.846;2022-07-29T14:13:49;2.30;;;1.65;;
33072;SDS011;19432;48.946;8.846;2022-07-29T14:16:15;1.70;;;1.48;;
33072;SDS011;19432;48.946;8.846;2022-07-29T14:18:41;1.65;;;1.40;;
33072;SDS011;19432;48.946;8.846;2022-07-29T14:21:07;1.65;;;1.55;;
33072;SDS011;19432;48.946;8.846;2022-07-29T14:23:33;1.83;;;1.35;;
33072;SDS011;19432;48.946;8.846;2022-07-29T14:25:58;1.45;;;1.35;;
33072;SDS011;19432;48.946;8.846;2022-07-29T14:28:24;1.50;;;1.40;;
33072;SDS011;19432;48.946;8.846;2022-07-29T14:30:50;1.52;;;1.42;;
33072;SDS011;19432;48.946;8.846;2022-07-29T14:33:15;1.35;;;1.25;;
33072;SDS011;19432;48.946;8.846;2022-07-29T14:35:41;2.30;;;1.38;;
33072;SDS011;19432;48.946;8.846;2022-07-29T14:38:06;1.50;;;1.38;;
33072;SDS011;19432;48.946;8.846;2022-07-29T14:40:32;1.52;;;1.42;;
33072;SDS011;19432;48.946;8.846;2022-07-29T14:42:58;1.38;;;1.27;;
33072;SDS011;19432;48.946;8.846;2022-07-29T14:45:23;1.30;;;1.20;;
33072;SDS011;19432;48.946;8.846;2022-07-29T14:47:49;1.67;;;1.30;;
33072;SDS011;19432;48.946;8.846;2022-07-29T14:50:15;2.20;;;1.60;;
33072;SDS011;19432;48.946;8.846;2022-07-29T14:52:41;1.45;;;1.35;;
33072;SDS011;19432;48.946;8.846;2022-07-29T14:55:07;1.42;;;1.20;;
33072;SDS011;19432;48.946;8.846;2022-07-29T14:57:33;1.60;;;1.50;;
33072;SDS011;19432;48.946;8.846;2022-07-29T14:59:58;1.20;;;1.10;;
33072;SDS011;19432;48.946;8.846;2022-07-29T15:02:24;1.42;;;1.33;;
33072;SDS011;19432;48.946;8.846;2022-07-29T15:04:50;1.92;;;1.30;;
33072;SDS011;19432;48.946;8.846;2022-07-29T15:07:15;1.50;;;1.38;;
33072;SDS011;19432;48.946;8.846;2022-07-29T15:09:41;1.25;;;1.15;;
33072;SDS011;19432;48.946;8.846;2022-07-29T15:12:07;1.30;;;1.20;;
33072;SDS011;19432;48.946;8.846;2022-07-29T15:14:35;1.60;;;1.50;;
33072;SDS011;19432;48.946;8.846;2022-07-29T15:17:01;2.40;;;1.40;;
33072;SDS011;19432;48.946;8.846;2022-07-29T15:19:27;1.30;;;1.20;;
33072;SDS011;19432;48.946;8.846;2022-07-29T15:21:52;1.63;;;1.10;;
33072;SDS011;19432;48.946;8.846;2022-07-29T15:24:18;1.42;;;1.27;;
33072;SDS011;19432;48.946;8.846;2022-07-29T15:26:45;1.50;;;1.40;;
33072;SDS011;19432;48.946;8.846;2022-07-29T15:29:11;1.48;;;1.30;;
33072;SDS011;19432;48.946;8.846;2022-07-29T15:31:37;1.60;;;1.40;;
33072;SDS011;19432;48.946;8.846;2022-07-29T15:34:03;1.23;;;1.13;;
33072;SDS011;19432;48.946;8.846;2022-07-29T15:36:29;1.58;;;1.48;;
33072;SDS011;19432;48.946;8.846;2022-07-29T15:38:54;1.55;;;1.40;;
33072;SDS011;19432;48.946;8.846;2022-07-29T15:41:21;1.50;;;1.30;;